createdAt,value
2023-11-13T00:01:34.564Z,11.57
2023-11-13T00:04:01.568Z,11.97
2023-11-13T00:06:28.389Z,11.83
2023-11-13T00:08:55.136Z,12.10
2023-11-13T00:11:21.927Z,12.23
2023-11-13T00:13:48.839Z,10.80
2023-11-13T00:16:16.058Z,11.87
2023-11-13T00:18:43.330Z,11.90
2023-11-13T00:21:10.228Z,11.07
2023-11-13T00:23:38.436Z,12.47
2023-11-13T00:26:06.300Z,12.07
2023-11-13T00:28:33.131Z,13.17
2023-11-13T00:31:00.012Z,13.53
2023-11-13T00:33:26.988Z,12.90
2023-11-13T00:35:53.658Z,13.57
2023-11-13T00:38:20.412Z,12.07
2023-11-13T00:40:48.261Z,13.63
2023-11-13T00:43:15.374Z,12.87
2023-11-13T00:45:42.464Z,16.90
2023-11-13T00:48:09.295Z,12.63
2023-11-13T00:50:36.089Z,16.13
2023-11-13T00:53:02.814Z,14.10
2023-11-13T00:55:29.996Z,19.03
2023-11-13T00:57:56.807Z,17.87
2023-11-13T01:00:23.652Z,16.03
2023-11-13T01:02:50.421Z,16.73
2023-11-13T01:05:17.320Z,17.83
2023-11-13T01:07:44.081Z,16.83
2023-11-13T01:10:11.018Z,17.63
2023-11-13T01:12:40.082Z,14.57
2023-11-13T01:15:08.362Z,16.50
2023-11-13T01:17:35.615Z,18.70
2023-11-13T01:20:04.198Z,15.07
2023-11-13T01:22:31.555Z,16.50
2023-11-13T01:24:58.752Z,16.50
2023-11-13T01:27:25.533Z,16.57
2023-11-13T01:29:52.268Z,14.77
2023-11-13T01:32:19.035Z,14.97
2023-11-13T01:34:46.387Z,14.13
2023-11-13T01:37:15.233Z,14.60
2023-11-13T01:39:41.996Z,13.00
2023-11-13T01:42:08.640Z,13.43
2023-11-13T01:44:35.329Z,15.27
2023-11-13T01:47:02.202Z,15.43
2023-11-13T01:49:29.467Z,15.33
2023-11-13T01:51:56.484Z,15.23
2023-11-13T01:54:24.075Z,13.73
2023-11-13T01:56:52.780Z,14.30
2023-11-13T01:59:19.931Z,15.17
2023-11-13T02:01:47.325Z,12.90
2023-11-13T02:04:14.148Z,12.67
2023-11-13T02:06:41.024Z,12.43
2023-11-13T02:09:11.270Z,13.77
2023-11-13T02:11:38.703Z,13.57
2023-11-13T02:14:06.618Z,12.73
2023-11-13T02:16:34.280Z,13.77
2023-11-13T02:19:01.491Z,13.13
2023-11-13T02:21:28.248Z,13.03
2023-11-13T02:23:56.727Z,12.17
2023-11-13T02:26:25.166Z,16.17
2023-11-13T02:28:52.397Z,15.60
2023-11-13T02:31:19.753Z,16.00
2023-11-13T02:33:46.817Z,21.27
2023-11-13T02:36:13.607Z,19.53
2023-11-13T02:38:40.377Z,13.20
2023-11-13T02:41:08.714Z,17.23
2023-11-13T02:43:35.606Z,14.80
2023-11-13T02:46:02.580Z,14.37
2023-11-13T02:48:29.718Z,15.87
2023-11-13T02:50:56.422Z,16.37
2023-11-13T02:53:23.089Z,18.47
2023-11-13T02:55:52.391Z,20.37
2023-11-13T02:58:19.751Z,14.07
2023-11-13T03:00:48.263Z,14.33
2023-11-13T03:03:15.237Z,15.63
2023-11-13T03:05:42.097Z,14.70
2023-11-13T03:08:09.768Z,15.03
2023-11-13T03:10:36.590Z,15.40
2023-11-13T03:13:04.044Z,12.87
2023-11-13T03:15:30.809Z,13.73
2023-11-13T03:17:57.601Z,15.20
2023-11-13T03:20:24.530Z,15.37
2023-11-13T03:22:51.232Z,13.50
2023-11-13T03:25:19.347Z,13.53
2023-11-13T03:27:46.469Z,13.77
2023-11-13T03:30:14.910Z,13.97
2023-11-13T03:32:43.418Z,15.53
2023-11-13T03:35:12.585Z,16.97
2023-11-13T03:37:39.366Z,16.70
2023-11-13T03:40:08.013Z,13.77
2023-11-13T03:42:34.857Z,12.30
2023-11-13T03:45:02.040Z,11.93
2023-11-13T03:47:29.268Z,11.17
2023-11-13T03:49:56.223Z,10.90
2023-11-13T03:52:23.050Z,11.67
2023-11-13T03:54:49.785Z,10.33
2023-11-13T03:57:16.529Z,8.97
2023-11-13T03:59:43.336Z,8.13
2023-11-13T04:02:10.085Z,8.70
2023-11-13T04:04:36.778Z,8.40
2023-11-13T04:07:03.473Z,8.30
2023-11-13T04:09:30.234Z,9.67
2023-11-13T04:11:57.062Z,10.50
2023-11-13T04:14:23.788Z,9.57
2023-11-13T04:16:50.545Z,9.17
2023-11-13T04:19:17.298Z,9.63
2023-11-13T04:21:44.044Z,9.67
2023-11-13T04:24:10.774Z,9.17
2023-11-13T04:26:37.562Z,9.80
2023-11-13T04:29:04.283Z,9.27
2023-11-13T04:31:30.961Z,7.63
2023-11-13T04:33:57.627Z,9.30
2023-11-13T04:36:26.623Z,8.00
2023-11-13T04:38:53.255Z,5.90
2023-11-13T04:41:19.917Z,5.90
2023-11-13T04:43:46.661Z,5.20
2023-11-13T04:46:16.293Z,6.03
2023-11-13T04:48:43.370Z,4.90
2023-11-13T04:51:10.088Z,5.43
2023-11-13T04:53:37.079Z,5.37
2023-11-13T04:56:03.915Z,5.70
2023-11-13T04:58:30.633Z,4.90
2023-11-13T05:00:57.618Z,4.87
2023-11-13T05:03:24.495Z,4.07
2023-11-13T05:05:51.187Z,3.77
2023-11-13T05:08:17.961Z,3.77
2023-11-13T05:10:45.038Z,3.93
2023-11-13T05:13:12.182Z,2.90
2023-11-13T05:15:38.916Z,2.57
2023-11-13T05:18:07.839Z,2.70
2023-11-13T05:20:40.685Z,2.20
2023-11-13T05:23:07.721Z,2.30
2023-11-13T05:25:34.528Z,2.03
2023-11-13T05:28:01.355Z,2.13
2023-11-13T05:30:28.067Z,2.33
2023-11-13T05:32:54.766Z,2.07
2023-11-13T05:35:21.690Z,2.13
2023-11-13T05:37:48.489Z,2.00
2023-11-13T05:40:17.330Z,2.30
2023-11-13T05:42:45.853Z,2.63
2023-11-13T05:45:16.088Z,2.70
2023-11-13T05:47:45.137Z,3.00
2023-11-13T05:50:12.000Z,2.80
2023-11-13T05:52:38.809Z,2.90
2023-11-13T05:55:06.814Z,3.03
2023-11-13T05:57:33.498Z,3.00
2023-11-13T06:00:00.661Z,2.70
2023-11-13T06:02:27.446Z,3.07
2023-11-13T06:04:54.258Z,3.77
2023-11-13T06:07:21.139Z,3.70
2023-11-13T06:09:49.311Z,3.70
2023-11-13T06:12:16.227Z,1.97
2023-11-13T06:14:42.884Z,1.87
2023-11-13T06:17:09.968Z,2.30
2023-11-13T06:19:36.878Z,3.20
2023-11-13T06:22:03.773Z,3.50
2023-11-13T06:24:30.525Z,4.73
2023-11-13T06:26:57.269Z,5.67
2023-11-13T06:29:26.702Z,5.90
2023-11-13T06:31:54.239Z,7.10
2023-11-13T06:34:21.361Z,4.90
2023-11-13T06:36:48.195Z,4.30
2023-11-13T06:39:16.454Z,3.53
2023-11-13T06:41:44.738Z,3.50
2023-11-13T06:44:11.945Z,2.93
2023-11-13T06:46:39.070Z,2.60
2023-11-13T06:49:05.898Z,3.23
2023-11-13T06:51:32.623Z,3.90
2023-11-13T06:53:59.284Z,3.93
2023-11-13T06:56:25.969Z,3.77
2023-11-13T06:58:52.695Z,3.40
2023-11-13T07:01:22.331Z,3.63
2023-11-13T07:03:49.327Z,3.30
2023-11-13T07:06:16.102Z,4.13
2023-11-13T07:08:42.880Z,4.23
2023-11-13T07:11:12.044Z,4.07
2023-11-13T07:13:40.446Z,3.83
2023-11-13T07:16:11.793Z,3.73
2023-11-13T07:18:38.634Z,4.07
2023-11-13T07:21:06.296Z,4.57
2023-11-13T07:23:33.179Z,3.90
2023-11-13T07:25:59.880Z,3.83
2023-11-13T07:28:26.697Z,3.33
2023-11-13T07:30:53.404Z,3.77
2023-11-13T07:33:20.151Z,3.60
2023-11-13T07:35:46.845Z,5.00
2023-11-13T07:38:13.560Z,3.80
2023-11-13T07:40:40.350Z,4.40
2023-11-13T07:43:09.864Z,4.67
2023-11-13T07:45:39.249Z,4.43
2023-11-13T07:48:06.438Z,4.37
2023-11-13T07:50:33.275Z,4.70
2023-11-13T07:53:20.458Z,3.83
2023-11-13T07:55:47.492Z,4.23
2023-11-13T07:58:15.035Z,3.40
2023-11-13T08:00:41.822Z,3.13
2023-11-13T08:03:08.592Z,3.73
2023-11-13T08:05:36.117Z,3.00
2023-11-13T08:08:04.132Z,3.30
2023-11-13T08:10:31.049Z,3.50
2023-11-13T08:12:57.943Z,3.67
2023-11-13T08:15:26.550Z,3.30
2023-11-13T08:17:53.886Z,3.60
2023-11-13T08:20:27.110Z,3.40
2023-11-13T08:22:58.116Z,3.03
2023-11-13T08:25:26.030Z,2.53
2023-11-13T08:27:53.156Z,2.73
2023-11-13T08:30:23.504Z,2.80
2023-11-13T08:32:53.064Z,1.93
2023-11-13T08:35:20.419Z,2.57
2023-11-13T08:37:47.929Z,2.00
2023-11-13T08:40:26.308Z,2.20
2023-11-13T08:42:58.999Z,1.80
2023-11-13T08:45:27.435Z,1.47
2023-11-13T08:47:55.144Z,1.77
2023-11-13T08:50:23.744Z,2.33
2023-11-13T08:52:51.752Z,2.00
2023-11-13T08:55:19.311Z,1.93
2023-11-13T08:57:48.242Z,2.90
2023-11-13T09:00:23.502Z,3.03
2023-11-13T09:02:52.036Z,2.80
2023-11-13T09:05:20.754Z,3.60
2023-11-13T09:07:47.788Z,3.80
2023-11-13T09:10:17.465Z,4.07
2023-11-13T09:12:45.462Z,6.07
2023-11-13T09:15:14.914Z,6.50
2023-11-13T09:17:46.886Z,6.00
2023-11-13T09:20:17.754Z,5.73
2023-11-13T09:22:44.723Z,5.23
2023-11-13T09:25:15.770Z,4.27
2023-11-13T09:27:43.992Z,4.90
2023-11-13T09:30:11.913Z,4.40
2023-11-13T09:32:45.350Z,3.70
2023-11-13T09:35:23.691Z,4.23
2023-11-13T09:37:55.205Z,4.27
2023-11-13T09:40:35.959Z,4.37
2023-11-13T09:43:22.627Z,4.53
2023-11-13T09:45:53.425Z,4.53
2023-11-13T09:48:29.815Z,3.83
2023-11-13T09:51:01.016Z,4.53
2023-11-13T09:53:29.907Z,3.97
2023-11-13T09:55:57.543Z,5.33
2023-11-13T09:58:25.171Z,4.90
2023-11-13T10:00:53.030Z,6.37
2023-11-13T10:03:20.046Z,5.20
2023-11-13T10:05:47.074Z,4.90
2023-11-13T10:08:15.820Z,4.53
2023-11-13T10:10:44.352Z,3.77
2023-11-13T10:13:12.704Z,3.07
2023-11-13T10:15:43.980Z,3.70
2023-11-13T10:18:14.054Z,4.27
2023-11-13T10:20:47.159Z,5.07
2023-11-13T10:23:16.282Z,3.87
2023-11-13T10:25:48.977Z,4.10
2023-11-13T10:28:16.145Z,3.27
2023-11-13T10:30:52.517Z,3.30
2023-11-13T10:33:19.758Z,3.07
2023-11-13T10:35:49.433Z,2.70
2023-11-13T10:38:16.769Z,2.57
2023-11-13T10:40:52.275Z,3.00
2023-11-13T10:43:33.124Z,2.27
2023-11-13T10:46:01.662Z,2.87
2023-11-13T10:48:46.833Z,2.57
2023-11-13T10:51:17.258Z,2.07
2023-11-13T10:53:44.444Z,2.23
2023-11-13T10:56:11.670Z,2.27
2023-11-13T10:58:39.076Z,2.40
2023-11-13T11:01:09.410Z,2.20
2023-11-13T11:03:44.854Z,2.27
2023-11-13T11:06:15.379Z,2.80
2023-11-13T11:08:45.757Z,2.60
2023-11-13T11:11:13.807Z,2.30
2023-11-13T11:13:46.773Z,2.50
2023-11-13T11:16:28.493Z,2.47
2023-11-13T11:19:20.153Z,2.20
2023-11-13T11:22:09.712Z,2.37
2023-11-13T11:25:02.036Z,2.50
2023-11-13T11:27:37.640Z,2.60
2023-11-13T11:30:31.222Z,2.50
2023-11-13T11:32:59.673Z,2.17
2023-11-13T11:35:30.575Z,2.43
2023-11-13T11:38:19.933Z,2.93
2023-11-13T11:40:49.383Z,2.60
2023-11-13T11:43:24.566Z,2.77
2023-11-13T11:45:54.076Z,2.60
2023-11-13T11:48:25.386Z,3.63
2023-11-13T11:51:04.474Z,2.60
2023-11-13T11:53:31.394Z,3.30
2023-11-13T11:55:59.579Z,2.97
2023-11-13T11:58:26.373Z,2.57
2023-11-13T12:00:53.169Z,2.60
2023-11-13T12:03:20.242Z,2.57
2023-11-13T12:05:48.235Z,3.10
2023-11-13T12:08:15.162Z,2.70
2023-11-13T12:10:43.799Z,2.67
2023-11-13T12:13:10.905Z,2.77
2023-11-13T12:15:37.735Z,2.67
2023-11-13T12:18:04.594Z,2.50
2023-11-13T12:20:32.392Z,3.33
2023-11-13T12:22:59.353Z,2.80
2023-11-13T12:25:26.301Z,2.77
2023-11-13T12:27:55.798Z,2.60
2023-11-13T12:30:24.169Z,2.37
2023-11-13T12:32:54.209Z,2.20
2023-11-13T12:35:23.467Z,2.33
2023-11-13T12:37:51.431Z,2.33
2023-11-13T12:40:23.051Z,3.33
2023-11-13T12:42:50.896Z,2.33
2023-11-13T12:45:19.549Z,3.00
2023-11-13T12:47:57.186Z,2.20
2023-11-13T12:50:27.073Z,2.50
2023-11-13T12:52:55.831Z,2.20
2023-11-13T12:55:24.496Z,2.30
2023-11-13T12:57:55.129Z,2.47
2023-11-13T13:00:22.428Z,2.13
2023-11-13T13:02:51.614Z,2.30
2023-11-13T13:05:28.944Z,1.97
2023-11-13T13:07:59.940Z,2.10
2023-11-13T13:10:27.060Z,2.13
2023-11-13T13:12:54.950Z,2.13
2023-11-13T13:15:22.540Z,1.70
2023-11-13T13:17:51.567Z,2.10
2023-11-13T13:20:31.411Z,2.30
2023-11-13T13:22:59.645Z,2.30
2023-11-13T13:25:31.119Z,1.80
2023-11-13T13:27:58.865Z,1.97
2023-11-13T13:30:25.982Z,2.10
2023-11-13T13:32:52.839Z,2.40
2023-11-13T13:35:21.266Z,2.17
2023-11-13T13:37:49.030Z,2.00
2023-11-13T13:40:18.107Z,1.97
2023-11-13T13:42:46.042Z,1.97
2023-11-13T13:45:19.413Z,2.00
2023-11-13T13:47:50.046Z,2.10
2023-11-13T13:50:22.386Z,2.27
2023-11-13T13:52:52.553Z,2.00
2023-11-13T13:55:22.328Z,2.20
2023-11-13T13:57:51.428Z,2.10
2023-11-13T14:00:33.691Z,1.97
2023-11-13T14:03:11.496Z,2.00
2023-11-13T14:05:42.805Z,1.70
2023-11-13T14:08:15.634Z,2.00
2023-11-13T14:10:44.383Z,2.60
2023-11-13T14:13:14.477Z,2.00
2023-11-13T14:15:53.877Z,3.43
2023-11-13T14:18:27.015Z,2.90
2023-11-13T14:20:59.732Z,2.07
2023-11-13T14:23:28.221Z,2.07
2023-11-13T14:25:55.844Z,2.30
2023-11-13T14:28:23.465Z,2.80
2023-11-13T14:30:50.781Z,2.13
2023-11-13T14:33:19.379Z,1.80
2023-11-13T14:35:46.397Z,2.07
2023-11-13T14:38:13.111Z,1.80
2023-11-13T14:40:40.883Z,2.23
2023-11-13T14:43:07.941Z,2.13
2023-11-13T14:45:34.761Z,1.80
2023-11-13T14:48:03.032Z,1.70
2023-11-13T14:50:31.765Z,1.67
2023-11-13T14:52:58.920Z,1.67
2023-11-13T14:55:27.522Z,1.23
2023-11-13T14:57:54.418Z,1.50
2023-11-13T15:00:23.813Z,1.10
2023-11-13T15:02:52.966Z,1.50
2023-11-13T15:05:21.215Z,1.70
2023-11-13T15:07:49.389Z,1.50
2023-11-13T15:10:17.604Z,1.37
2023-11-13T15:12:45.031Z,1.53
2023-11-13T15:15:16.964Z,1.30
2023-11-13T15:17:45.920Z,1.10
2023-11-13T15:20:15.774Z,1.77
2023-11-13T15:23:01.509Z,1.43
2023-11-13T15:25:32.662Z,1.40
2023-11-13T15:27:59.583Z,1.40
2023-11-13T15:30:26.672Z,1.30
2023-11-13T15:32:53.456Z,1.93
2023-11-13T15:35:20.316Z,1.37
2023-11-13T15:37:47.620Z,1.13
2023-11-13T15:40:15.523Z,1.40
2023-11-13T15:42:42.539Z,0.90
2023-11-13T15:45:12.190Z,1.00
2023-11-13T15:47:39.815Z,1.30
2023-11-13T15:50:10.976Z,1.50
2023-11-13T15:52:39.050Z,1.60
2023-11-13T15:55:06.496Z,2.27
2023-11-13T15:57:33.524Z,1.23
2023-11-13T16:00:00.414Z,1.03
2023-11-13T16:02:27.244Z,1.07
2023-11-13T16:04:54.670Z,1.00
2023-11-13T16:07:21.585Z,1.03
2023-11-13T16:09:49.020Z,1.47
2023-11-13T16:12:15.826Z,2.10
2023-11-13T16:14:45.118Z,1.20
2023-11-13T16:17:12.050Z,2.50
2023-11-13T16:19:41.010Z,3.00
2023-11-13T16:22:09.161Z,2.37
2023-11-13T16:24:35.880Z,2.10
2023-11-13T16:27:02.929Z,1.07
2023-11-13T16:29:30.150Z,1.77
2023-11-13T16:32:00.435Z,2.03
2023-11-13T16:34:27.374Z,1.87
2023-11-13T16:36:54.130Z,2.73
2023-11-13T16:39:21.123Z,1.80
2023-11-13T16:41:47.853Z,1.50
2023-11-13T16:44:15.557Z,1.23
2023-11-13T16:46:42.399Z,0.90
2023-11-13T16:49:09.494Z,1.50
2023-11-13T16:51:36.769Z,1.27
2023-11-13T16:54:06.618Z,1.50
2023-11-13T16:56:39.030Z,1.20
2023-11-13T16:59:06.414Z,1.50
2023-11-13T17:01:33.312Z,1.90
2023-11-13T17:04:01.782Z,1.20
2023-11-13T17:06:31.896Z,1.00
2023-11-13T17:08:59.467Z,1.10
2023-11-13T17:11:27.109Z,1.20
2023-11-13T17:13:53.965Z,0.83
2023-11-13T17:16:21.074Z,1.40
2023-11-13T17:18:48.417Z,1.40
2023-11-13T17:21:15.286Z,0.80
2023-11-13T17:23:42.224Z,1.03
2023-11-13T17:26:09.820Z,1.10
2023-11-13T17:28:36.837Z,0.90
2023-11-13T17:31:04.067Z,0.80
2023-11-13T17:33:31.004Z,1.10
2023-11-13T17:35:57.928Z,1.00
2023-11-13T17:38:25.265Z,0.83
2023-11-13T17:40:52.136Z,0.80
2023-11-13T17:43:20.565Z,0.80
2023-11-13T17:45:48.663Z,0.97
2023-11-13T17:48:15.830Z,0.97
2023-11-13T17:50:44.449Z,1.13
2023-11-13T17:53:14.405Z,1.00
2023-11-13T17:55:41.476Z,0.90
2023-11-13T17:58:10.307Z,0.70
2023-11-13T18:00:39.907Z,1.40
2023-11-13T18:03:07.727Z,0.70
2023-11-13T18:05:34.694Z,0.97
2023-11-13T18:08:01.649Z,1.07
2023-11-13T18:10:28.465Z,0.90
2023-11-13T18:12:56.225Z,0.80
2023-11-13T18:15:24.621Z,1.30
2023-11-13T18:17:51.948Z,1.30
2023-11-13T18:20:19.628Z,1.20
2023-11-13T18:22:48.783Z,0.80
2023-11-13T18:25:16.846Z,1.17
2023-11-13T18:27:45.291Z,1.03
2023-11-13T18:30:13.199Z,1.10
2023-11-13T18:32:40.145Z,0.90
2023-11-13T18:35:07.987Z,1.20
2023-11-13T18:37:41.461Z,1.40
2023-11-13T18:40:09.774Z,1.47
2023-11-13T18:42:37.490Z,1.43
2023-11-13T18:45:06.420Z,1.33
2023-11-13T18:47:34.333Z,1.40
2023-11-13T18:50:01.334Z,1.47
2023-11-13T18:52:28.441Z,1.30
2023-11-13T18:54:55.750Z,1.20
2023-11-13T18:57:23.716Z,0.90
2023-11-13T18:59:50.570Z,1.10
2023-11-13T19:02:17.442Z,1.20
2023-11-13T19:04:44.365Z,0.80
2023-11-13T19:07:11.910Z,0.67
2023-11-13T19:09:38.687Z,1.20
2023-11-13T19:12:06.053Z,1.20
2023-11-13T19:14:33.138Z,0.83
2023-11-13T19:17:03.525Z,1.03
2023-11-13T19:19:30.633Z,1.23
2023-11-13T19:21:58.471Z,1.10
2023-11-13T19:24:25.317Z,0.77
2023-11-13T19:26:52.394Z,0.90
2023-11-13T19:29:22.532Z,1.00
2023-11-13T19:31:52.977Z,0.63
2023-11-13T19:34:20.180Z,0.80
2023-11-13T19:36:48.409Z,0.70
2023-11-13T19:39:15.634Z,0.70
2023-11-13T19:41:42.853Z,1.73
2023-11-13T19:44:09.925Z,0.90
2023-11-13T19:46:37.649Z,0.90
2023-11-13T19:49:05.724Z,0.63
2023-11-13T19:51:32.767Z,1.23
2023-11-13T19:53:59.597Z,1.00
2023-11-13T19:56:26.500Z,0.70
2023-11-13T19:58:53.453Z,0.80
2023-11-13T20:01:20.450Z,0.70
2023-11-13T20:03:47.381Z,0.60
2023-11-13T20:06:14.275Z,1.00
2023-11-13T20:08:41.285Z,0.87
2023-11-13T20:11:08.128Z,0.97
2023-11-13T20:13:35.074Z,0.83
2023-11-13T20:16:02.823Z,1.00
2023-11-13T20:18:36.458Z,0.83
2023-11-13T20:21:05.643Z,0.90
2023-11-13T20:23:32.635Z,0.90
2023-11-13T20:25:59.772Z,1.63
2023-11-13T20:28:27.076Z,1.07
2023-11-13T20:30:53.952Z,1.20
2023-11-13T20:33:20.893Z,0.90
2023-11-13T20:35:48.807Z,0.80
2023-11-13T20:38:16.696Z,1.30
2023-11-13T20:40:44.015Z,1.40
2023-11-13T20:43:11.502Z,0.70
2023-11-13T20:45:41.475Z,0.50
2023-11-13T20:48:08.577Z,0.40
2023-11-13T20:50:37.533Z,0.40
2023-11-13T20:53:04.675Z,0.47
2023-11-13T20:55:31.521Z,0.40
2023-11-13T20:57:58.764Z,0.43
2023-11-13T21:00:26.980Z,0.40
2023-11-13T21:02:54.090Z,0.80
2023-11-13T21:05:21.074Z,0.70
2023-11-13T21:07:50.613Z,0.60
2023-11-13T21:10:21.186Z,1.13
2023-11-13T21:12:48.546Z,0.70
2023-11-13T21:15:15.444Z,0.50
2023-11-13T21:17:45.123Z,0.87
2023-11-13T21:20:12.544Z,0.40
2023-11-13T21:22:41.459Z,0.60
2023-11-13T21:25:10.290Z,1.60
2023-11-13T21:27:37.612Z,0.60
2023-11-13T21:30:10.510Z,0.60
2023-11-13T21:32:37.706Z,0.77
2023-11-13T21:35:05.196Z,0.60
2023-11-13T21:37:32.246Z,0.37
2023-11-13T21:39:59.104Z,0.80
2023-11-13T21:42:26.744Z,0.40
2023-11-13T21:44:54.054Z,0.90
2023-11-13T21:47:21.965Z,0.90
2023-11-13T21:49:48.726Z,1.57
2023-11-13T21:52:15.732Z,1.57
2023-11-13T21:54:43.578Z,0.67
2023-11-13T21:57:11.748Z,0.40
2023-11-13T21:59:40.814Z,0.60
2023-11-13T22:02:08.787Z,0.40
2023-11-13T22:04:35.716Z,0.60
2023-11-13T22:07:03.790Z,0.20
2023-11-13T22:09:38.024Z,0.40
2023-11-13T22:12:05.371Z,0.33
2023-11-13T22:14:32.196Z,0.50
2023-11-13T22:17:02.209Z,0.60
2023-11-13T22:19:30.336Z,0.57
2023-11-13T22:21:57.163Z,0.93
2023-11-13T22:24:23.863Z,0.70
2023-11-13T22:26:51.046Z,0.53
2023-11-13T22:29:18.047Z,0.70
2023-11-13T22:31:44.782Z,0.57
2023-11-13T22:34:11.740Z,0.60
2023-11-13T22:36:40.320Z,0.70
2023-11-13T22:39:07.024Z,1.37
2023-11-13T22:41:33.728Z,0.67
2023-11-13T22:44:00.459Z,0.70
2023-11-13T22:46:27.215Z,0.90
2023-11-13T22:48:53.963Z,0.50
2023-11-13T22:51:20.781Z,0.60
2023-11-13T22:53:47.752Z,0.90
2023-11-13T22:56:15.435Z,0.80
2023-11-13T22:58:43.031Z,1.00
2023-11-13T23:01:09.790Z,1.03
2023-11-13T23:03:36.964Z,1.30
2023-11-13T23:06:03.808Z,0.90
2023-11-13T23:08:30.599Z,1.17
2023-11-13T23:10:57.344Z,1.30
2023-11-13T23:13:24.145Z,0.80
2023-11-13T23:15:50.908Z,1.40
2023-11-13T23:18:17.632Z,1.23
2023-11-13T23:20:44.349Z,1.30
2023-11-13T23:23:11.108Z,1.03
2023-11-13T23:25:37.895Z,1.60
2023-11-13T23:28:04.915Z,1.13
2023-11-13T23:30:32.036Z,1.30
2023-11-13T23:32:59.098Z,1.23
2023-11-13T23:35:25.882Z,1.50
2023-11-13T23:37:52.605Z,1.23
2023-11-13T23:40:19.520Z,1.77
2023-11-13T23:42:46.716Z,1.07
2023-11-13T23:45:13.393Z,1.60
2023-11-13T23:47:41.154Z,1.40
2023-11-13T23:50:09.972Z,1.73
2023-11-13T23:52:38.664Z,1.30
2023-11-13T23:55:05.908Z,1.93
2023-11-13T23:57:32.677Z,1.43
2023-11-13T23:59:59.443Z,1.80
